Time;durP1;ratioP1;P1;durP2;ratioP2;P2;SDS_P1;SDS_P2;PMS_P1;PMS_P2;Temp;Humidity;BMP_temperature;BMP_pressure;BME280_temperature;BME280_humidity;BME280_pressure;Samples;Min_cycle;Max_cycle;Signal;HPM_P1;HPM_P2
2021/09/26 00:01:07;;;;;;;25.40;17.13;;;;;;;14.01;100.00;101406.50;2616766;36;20548;-75
2021/09/26 00:03:38;;;;;;;27.25;18.30;;;;;;;14.05;100.00;101417.06;2616976;36;20046;-75
2021/09/26 00:06:06;;;;;;;24.40;17.00;;;;;;;14.01;100.00;101411.09;2616999;36;20038;-77
2021/09/26 00:08:35;;;;;;;23.30;15.90;;;;;;;13.94;100.00;101410.81;2616772;36;20029;-75
2021/09/26 00:11:07;;;;;;;24.85;17.38;;;;;;;13.96;100.00;101407.97;2616859;36;20045;-76
2021/09/26 00:14:21;;;;;;;26.30;16.63;;;;;;;13.97;100.00;101409.66;2616629;31;20063;-75
2021/09/26 00:35:57;;;;;;;29.65;17.73;;;;;;;13.68;100.00;101391.63;2619387;36;20037;-74
2021/09/26 00:38:54;;;;;;;25.85;17.33;;;;;;;13.67;100.00;101388.03;2662945;36;20067;-74
2021/09/26 00:41:32;;;;;;;26.23;17.25;;;;;;;13.64;100.00;101396.44;2617122;36;20563;-74
2021/09/26 00:44:22;;;;;;;32.20;18.52;;;;;;;13.70;100.00;101388.78;2617090;36;20133;-76
2021/09/26 00:59:32;;;;;;;32.42;20.40;;;;;;;13.70;100.00;101388.78;2634746;36;20646;-77
2021/09/26 01:05:29;;;;;;;32.22;21.08;;;;;;;13.72;100.00;101389.47;2635040;36;20435;-75
2021/09/26 01:33:26;;;;;;;32.17;20.75;;;;;;;13.67;100.00;101377.22;2615553;31;20031;-77
2021/09/26 01:36:03;;;;;;;38.83;22.95;;;;;;;13.64;100.00;101379.38;2616495;36;20073;-75
2021/09/26 01:44:17;;;;;;;33.70;21.48;;;;;;;13.47;100.00;101383.63;2617354;36;20034;-74
2021/09/26 02:12:56;;;;;;;36.53;22.15;;;;;;;13.10;100.00;101365.38;2619646;36;20034;-79
2021/09/26 02:18:42;;;;;;;36.47;23.38;;;;;;;13.01;100.00;101358.13;2615516;36;20114;-75
2021/09/26 02:39:43;;;;;;;37.95;22.33;;;;;;;12.66;100.00;101348.66;2616458;36;20614;-75
2021/09/26 02:42:19;;;;;;;37.88;23.08;;;;;;;12.63;100.00;101344.38;2617152;36;20049;-75
2021/09/26 02:44:55;;;;;;;40.38;23.92;;;;;;;12.62;100.00;101335.44;2617520;36;20038;-76
2021/09/26 02:47:28;;;;;;;34.80;23.48;;;;;;;12.58;100.00;101333.97;2616725;36;20531;-75
2021/09/26 02:52:53;;;;;;;34.03;22.05;;;;;;;12.56;100.00;101330.59;2683528;36;20030;-75
2021/09/26 02:55:38;;;;;;;35.95;23.58;;;;;;;12.53;100.00;101328.16;2616790;36;20022;-76
2021/09/26 03:00:53;;;;;;;38.45;24.23;;;;;;;12.48;100.00;101333.09;2618684;36;20061;-75
2021/09/26 03:03:24;;;;;;;42.60;28.00;;;;;;;12.52;100.00;101339.94;2616436;36;20029;-73
2021/09/26 03:05:53;;;;;;;35.83;23.95;;;;;;;12.49;100.00;101337.50;2617302;36;20029;-76
2021/09/26 03:13:58;;;;;;;46.15;26.63;;;;;;;12.50;100.00;101349.16;2616272;36;20029;-75
2021/09/26 03:16:27;;;;;;;38.78;24.85;;;;;;;12.42;100.00;101349.84;2615691;36;20046;-77
2021/09/26 03:18:56;;;;;;;45.03;26.27;;;;;;;12.50;100.00;101341.94;2616688;36;20031;-75
2021/09/26 03:21:27;;;;;;;42.28;25.15;;;;;;;12.39;100.00;101347.44;2617059;36;20022;-75
2021/09/26 03:23:56;;;;;;;40.17;25.15;;;;;;;12.40;100.00;101339.19;2617065;36;20046;-76
2021/09/26 03:26:32;;;;;;;47.67;26.38;;;;;;;12.37;100.00;101344.88;2616763;31;20042;-76
2021/09/26 03:29:01;;;;;;;46.00;27.30;;;;;;;12.27;100.00;101343.97;2616567;36;20035;-75
2021/09/26 03:31:30;;;;;;;41.30;25.23;;;;;;;12.27;100.00;101341.28;2617251;36;20038;-75
2021/09/26 03:33:59;;;;;;;39.97;26.55;;;;;;;12.23;100.00;101345.22;2616628;36;20338;-76
2021/09/26 03:36:29;;;;;;;43.88;26.80;;;;;;;12.20;100.00;101335.53;2616927;36;20158;-76
2021/09/26 03:39:05;;;;;;;46.92;27.48;;;;;;;12.19;100.00;101336.56;2616824;36;20567;-76
2021/09/26 03:41:38;;;;;;;39.67;25.35;;;;;;;12.22;100.00;101330.88;2616733;36;20026;-75
2021/09/26 03:44:07;;;;;;;39.75;24.23;;;;;;;12.23;100.00;101327.22;2615117;36;20034;-75
2021/09/26 03:46:36;;;;;;;35.15;23.80;;;;;;;12.19;100.00;101333.84;2614519;54;20178;-78
2021/09/26 03:49:10;;;;;;;38.07;24.23;;;;;;;12.19;100.00;101331.16;2616256;36;20034;-76
2021/09/26 03:51:39;;;;;;;39.40;23.40;;;;;;;12.22;100.00;101322.78;2617407;36;20772;-77
2021/09/26 03:54:08;;;;;;;33.60;22.27;;;;;;;12.23;100.00;101316.41;2618016;31;20534;-76
2021/09/26 03:56:39;;;;;;;38.70;23.20;;;;;;;12.16;100.00;101304.44;2616797;31;20419;-75
2021/09/26 03:59:07;;;;;;;37.72;24.33;;;;;;;12.15;100.00;101297.34;2616721;36;20535;-76
2021/09/26 04:01:36;;;;;;;38.03;24.25;;;;;;;12.11;100.00;101305.84;2615896;36;20059;-77
2021/09/26 04:04:04;;;;;;;36.63;23.63;;;;;;;12.07;100.00;101316.03;2616457;36;20031;-76
2021/09/26 04:06:32;;;;;;;37.22;23.75;;;;;;;12.00;100.00;101309.47;2617479;36;20448;-77
2021/09/26 04:09:01;;;;;;;37.00;23.30;;;;;;;12.07;100.00;101310.63;2616896;36;20574;-78
2021/09/26 04:11:29;;;;;;;34.45;23.05;;;;;;;12.06;100.00;101309.78;2616941;36;20435;-76
2021/09/26 04:21:56;;;;;;;37.40;23.83;;;;;;;11.91;100.00;101311.97;2615012;54;20027;-76
2021/09/26 04:24:25;;;;;;;35.58;23.73;;;;;;;11.98;100.00;101311.44;2617215;36;20459;-76
2021/09/26 04:26:53;;;;;;;36.97;23.73;;;;;;;11.92;100.00;101308.28;2616568;36;20049;-76
2021/09/26 04:29:21;;;;;;;35.77;23.73;;;;;;;11.85;100.00;101300.84;2616626;36;20034;-76
2021/09/26 04:31:50;;;;;;;39.35;24.42;;;;;;;11.83;100.00;101308.22;2616453;36;20701;-77
2021/09/26 04:34:19;;;;;;;40.27;24.27;;;;;;;11.88;100.00;101306.84;2616495;36;20034;-77
2021/09/26 04:36:50;;;;;;;38.80;24.92;;;;;;;11.87;100.00;101310.50;2617101;36;20858;-77
2021/09/26 04:39:22;;;;;;;35.08;23.92;;;;;;;11.87;100.00;101305.13;2616029;36;20101;-77
2021/09/26 04:44:33;;;;;;;44.15;25.35;;;;;;;11.91;100.00;101301.16;2616414;36;20026;-76
2021/09/26 04:47:01;;;;;;;;;;;;;;;11.91;100.00;101309.25;2615866;36;20037;-77
2021/09/26 04:49:31;;;;;;;42.03;24.23;;;;;;;11.87;100.00;101312.38;2616297;36;19942;-76
2021/09/26 04:52:02;;;;;;;36.97;24.40;;;;;;;11.92;100.00;101310.09;2616869;36;20026;-76
2021/09/26 04:54:43;;;;;;;41.58;26.00;;;;;;;11.91;100.00;101322.75;2616604;31;20634;-76
2021/09/26 04:57:12;;;;;;;37.50;24.52;;;;;;;11.98;100.00;101312.28;2616448;36;20547;-77
2021/09/26 04:59:40;;;;;;;41.03;25.83;;;;;;;12.01;100.00;101316.56;2617727;36;20035;-78
2021/09/26 05:02:08;;;;;;;40.63;25.17;;;;;;;12.06;100.00;101304.41;2615982;36;20022;-76
2021/09/26 05:04:37;;;;;;;38.35;25.38;;;;;;;12.05;100.00;101301.81;2617898;31;20685;-78
2021/09/26 05:07:05;;;;;;;37.53;24.20;;;;;;;12.03;100.00;101306.53;2617085;31;20542;-79
2021/09/26 05:09:37;;;;;;;35.20;22.70;;;;;;;12.05;100.00;101309.94;2616710;36;20042;-78
2021/09/26 05:12:06;;;;;;;36.53;23.13;;;;;;;12.08;100.00;101315.06;2617246;36;20050;-77
2021/09/26 05:17:21;;;;;;;39.10;25.02;;;;;;;12.22;100.00;101319.22;2615004;54;20035;-77
2021/09/26 05:19:49;;;;;;;39.08;24.83;;;;;;;12.24;100.00;101318.09;2617286;36;20027;-79
2021/09/26 05:24:45;;;;;;;38.83;25.20;;;;;;;12.38;100.00;101319.59;2616024;36;20134;-76
2021/09/26 05:27:14;;;;;;;35.42;23.83;;;;;;;12.49;100.00;101318.63;2617545;36;20543;-80
2021/09/26 05:29:42;;;;;;;36.15;24.08;;;;;;;12.52;100.00;101310.25;2617873;36;20027;-76
2021/09/26 05:32:11;;;;;;;34.45;23.08;;;;;;;12.55;100.00;101309.13;2617550;36;20557;-77
2021/09/26 05:34:40;;;;;;;33.25;23.90;;;;;;;12.66;100.00;101300.03;2617246;36;20030;-76
2021/09/26 05:37:09;;;;;;;36.50;23.77;;;;;;;12.69;100.00;101308.72;2617276;36;20053;-75
2021/09/26 05:39:37;;;;;;;40.53;25.30;;;;;;;12.62;100.00;101307.56;2617212;36;20038;-76
2021/09/26 05:42:09;;;;;;;40.67;23.55;;;;;;;12.70;100.00;101313.13;2617435;36;20034;-76
2021/09/26 05:44:40;;;;;;;36.78;24.33;;;;;;;12.79;100.00;101317.72;2617910;36;20427;-76
2021/09/26 05:47:14;;;;;;;41.08;24.15;;;;;;;12.79;100.00;101316.84;2616793;36;20104;-77
2021/09/26 05:49:43;;;;;;;34.10;21.67;;;;;;;12.92;100.00;101330.94;2619485;36;20080;-76
2021/09/26 05:54:56;;;;;;;31.70;22.05;;;;;;;12.93;100.00;101327.25;2617082;36;20023;-76
2021/09/26 05:57:27;;;;;;;39.35;23.70;;;;;;;12.93;100.00;101319.13;2617106;31;20041;-76
2021/09/26 05:59:59;;;;;;;35.30;22.70;;;;;;;12.96;100.00;101313.44;2617379;36;20029;-77
2021/09/26 06:02:28;;;;;;;36.45;23.20;;;;;;;13.05;100.00;101321.72;2616318;36;20122;-75
2021/09/26 06:04:57;;;;;;;31.98;21.73;;;;;;;13.17;100.00;101334.09;2617011;36;20045;-78
2021/09/26 06:07:25;;;;;;;;;;;;;;;13.20;100.00;101320.28;2616790;36;20061;-76
2021/09/26 06:09:55;;;;;;;32.75;21.15;;;;;;;13.23;100.00;101325.41;2617326;36;20360;-75
2021/09/26 06:18:24;;;;;;;30.60;20.63;;;;;;;13.49;100.00;101320.31;2616183;36;20036;-75
2021/09/26 06:20:54;;;;;;;29.98;19.98;;;;;;;13.57;100.00;101325.00;2617001;36;20058;-76
2021/09/26 06:26:08;;;;;;;26.27;18.52;;;;;;;13.64;100.00;101326.13;2616558;31;20037;-77
2021/09/26 06:28:40;;;;;;;30.70;21.15;;;;;;;13.60;100.00;101326.56;2616883;36;20562;-75
2021/09/26 06:31:11;;;;;;;32.45;18.77;;;;;;;13.68;100.00;101318.59;2616815;36;20026;-77
2021/09/26 06:33:42;;;;;;;31.30;19.17;;;;;;;13.84;100.00;101326.09;2616130;36;20026;-78
2021/09/26 06:36:13;;;;;;;27.92;19.33;;;;;;;13.92;100.00;101320.81;2616637;36;20122;-77
2021/09/26 06:38:44;;;;;;;30.15;19.60;;;;;;;14.06;100.00;101324.91;2621835;36;20034;-77
2021/09/26 06:41:15;;;;;;;27.48;20.35;;;;;;;14.16;100.00;101319.44;2617383;36;20219;-76
2021/09/26 06:43:43;;;;;;;27.30;18.52;;;;;;;14.30;100.00;101328.94;2617267;36;20146;-76
2021/09/26 06:46:12;;;;;;;29.55;18.75;;;;;;;14.21;100.00;101325.28;2615727;36;20030;-77
2021/09/26 06:48:44;;;;;;;26.75;18.42;;;;;;;14.28;100.00;101320.97;2616682;36;20030;-76
2021/09/26 06:51:12;;;;;;;29.20;18.05;;;;;;;14.40;100.00;101320.75;2617290;36;20038;-76
2021/09/26 06:53:41;;;;;;;25.47;18.77;;;;;;;14.50;100.00;101318.84;2617053;36;20026;-76
2021/09/26 06:56:11;;;;;;;26.10;18.02;;;;;;;14.49;100.00;101319.88;2614822;36;20685;-76
2021/09/26 06:58:41;;;;;;;23.35;17.63;;;;;;;14.49;100.00;101317.16;2617384;36;20023;-76
2021/09/26 07:01:11;;;;;;;24.92;16.70;;;;;;;14.63;100.00;101319.38;2614821;36;20034;-77
2021/09/26 07:03:39;;;;;;;;;;;;;;;14.59;100.00;101317.09;2616534;36;20030;-76
2021/09/26 07:06:11;;;;;;;25.52;16.88;;;;;;;14.62;100.00;101328.53;2616778;36;19950;-78
2021/09/26 07:08:40;;;;;;;27.23;18.08;;;;;;;14.56;100.00;101323.69;2617766;31;20046;-75
2021/09/26 07:13:49;;;;;;;22.40;16.35;;;;;;;14.71;100.00;101333.03;2616252;36;20038;-77
2021/09/26 07:16:19;;;;;;;26.52;17.48;;;;;;;14.83;100.00;101339.09;2616330;36;20494;-76
2021/09/26 07:18:49;;;;;;;24.13;17.20;;;;;;;14.90;100.00;101331.22;2616733;36;20022;-76
2021/09/26 07:21:25;;;;;;;19.98;16.13;;;;;;;14.94;100.00;101338.00;2617171;36;20030;-77
2021/09/26 07:23:54;;;;;;;23.88;17.10;;;;;;;14.90;100.00;101344.78;2616638;36;20029;-76
2021/09/26 09:56:44;;;;;;;17.27;13.77;;;;;;;20.02;100.00;101354.97;2665936;31;20448;-75
2021/09/26 09:59:17;;;;;;;19.23;14.88;;;;;;;20.24;100.00;101358.69;2617685;36;20416;-76
2021/09/26 10:04:44;;;;;;;18.25;13.57;;;;;;;20.20;100.00;101362.81;2634340;36;20022;-77
2021/09/26 10:10:03;;;;;;;19.30;14.75;;;;;;;20.37;100.00;101361.59;2615246;36;20035;-76
2021/09/26 10:13:17;;;;;;;18.65;14.15;;;;;;;20.74;100.00;101354.34;2615294;36;20502;-77
2021/09/26 10:15:46;;;;;;;19.00;15.10;;;;;;;20.59;100.00;101351.59;2615110;31;20030;-75
2021/09/26 10:18:14;;;;;;;19.02;14.07;;;;;;;20.48;100.00;101352.09;2614899;36;20042;-77
2021/09/26 10:20:44;;;;;;;19.48;14.57;;;;;;;20.54;100.00;101354.06;2615990;36;20433;-76
2021/09/26 10:23:12;;;;;;;17.15;14.05;;;;;;;20.75;100.00;101357.94;2614017;31;20031;-76
2021/09/26 10:25:40;;;;;;;17.25;14.10;;;;;;;21.05;100.00;101355.97;2616767;36;20077;-75
2021/09/26 10:28:12;;;;;;;17.30;14.13;;;;;;;21.41;100.00;101355.09;2616659;31;20616;-76
2021/09/26 10:30:40;;;;;;;15.23;12.80;;;;;;;21.36;100.00;101352.06;2615367;36;20065;-76
2021/09/26 10:33:09;;;;;;;14.50;12.18;;;;;;;21.78;100.00;101349.53;2615346;36;20594;-76
2021/09/26 10:35:38;;;;;;;15.13;11.85;;;;;;;21.90;100.00;101342.47;2616633;36;20064;-75
2021/09/26 10:38:10;;;;;;;17.05;12.70;;;;;;;22.02;100.00;101356.47;2616357;31;20030;-76
2021/09/26 10:40:39;;;;;;;13.98;12.23;;;;;;;21.50;100.00;101355.81;2616549;36;20034;-76
2021/09/26 10:43:35;;;;;;;15.65;12.65;;;;;;;22.10;100.00;101363.66;2615998;36;20030;-75
2021/09/26 10:46:23;;;;;;;17.95;12.18;;;;;;;22.20;100.00;101361.41;2616066;36;20031;-78
2021/09/26 10:49:15;;;;;;;15.75;12.27;;;;;;;21.90;100.00;101347.94;2616922;36;20118;-75
2021/09/26 10:52:03;;;;;;;16.00;12.15;;;;;;;21.91;100.00;101352.38;2616780;31;20031;-76
2021/09/26 10:54:37;;;;;;;20.13;13.27;;;;;;;21.97;100.00;101358.97;2616886;36;20506;-77
2021/09/26 10:57:25;;;;;;;17.52;13.88;;;;;;;21.62;100.00;101354.25;2616499;36;20029;-76
2021/09/26 10:59:58;;;;;;;15.13;12.52;;;;;;;21.38;100.00;101346.41;2616585;31;20061;-77
2021/09/26 11:02:50;;;;;;;19.13;13.93;;;;;;;21.28;100.00;101355.78;2615608;36;20053;-77
2021/09/26 11:05:42;;;;;;;19.85;13.70;;;;;;;21.70;100.00;101347.78;2616572;36;20063;-76
2021/09/26 11:08:14;;;;;;;16.50;13.68;;;;;;;22.23;100.00;101352.78;2615937;36;20061;-76
2021/09/26 11:10:53;;;;;;;18.20;13.98;;;;;;;22.62;100.00;101356.84;2614911;36;20023;-75
2021/09/26 11:14:01;;;;;;;17.23;13.25;;;;;;;22.40;100.00;101358.84;2615641;47;20030;-75
2021/09/26 11:26:43;;;;;;;18.23;14.43;;;;;;;22.49;100.00;101373.22;2632113;36;20065;-77
2021/09/26 11:29:13;;;;;;;20.88;15.57;;;;;;;22.85;100.00;101364.75;2615115;36;20030;-77
2021/09/26 11:31:48;;;;;;;17.77;14.90;;;;;;;22.77;100.00;101364.09;2616447;31;20511;-75
2021/09/26 11:34:40;;;;;;;16.45;14.68;;;;;;;22.77;100.00;101359.44;2633666;36;20045;-76
2021/09/26 11:39:53;;;;;;;18.58;14.98;;;;;;;22.75;100.00;101356.91;2616567;36;20038;-75
2021/09/26 11:42:31;;;;;;;22.70;15.43;;;;;;;22.30;100.00;101358.31;2616429;36;20065;-74
2021/09/26 11:45:31;;;;;;;21.33;15.35;;;;;;;22.30;100.00;101359.16;2615240;36;20043;-76
2021/09/26 11:53:54;;;;;;;20.02;14.15;;;;;;;23.15;100.00;101356.22;2615958;36;20030;-76
2021/09/26 11:56:31;;;;;;;18.23;13.80;;;;;;;23.17;100.00;101348.59;2615530;36;20038;-75
2021/09/26 11:59:09;;;;;;;18.48;13.88;;;;;;;23.49;100.00;101339.78;2617242;36;20122;-77
2021/09/26 12:01:43;;;;;;;15.45;12.50;;;;;;;23.58;100.00;101355.00;2634488;36;20048;-76
2021/09/26 12:04:15;;;;;;;17.33;13.30;;;;;;;23.32;100.00;101351.19;2617380;31;20527;-76
2021/09/26 12:06:46;;;;;;;17.95;13.95;;;;;;;23.34;100.00;101346.31;2617237;31;20050;-76
2021/09/26 12:09:40;;;;;;;14.85;12.25;;;;;;;23.08;100.00;101345.16;2617336;36;20038;-76
2021/09/26 12:15:05;;;;;;;16.48;12.73;;;;;;;22.27;100.00;101361.47;2672877;36;20030;-77
2021/09/26 12:20:40;;;;;;;15.50;13.48;;;;;;;22.67;100.00;101337.88;2619673;36;20038;-76
2021/09/26 12:23:18;;;;;;;17.08;12.57;;;;;;;22.50;100.00;101336.53;2616951;36;20019;-76
2021/09/26 12:29:11;;;;;;;18.25;14.57;;;;;;;22.57;100.00;101330.03;2616956;36;20038;-75
2021/09/26 19:35:55;;;;;;;;;;;;;;;;;;;;;
2021/09/26 19:38:28;;;;;;;26.30;21.25;;;;;;;17.50;100.00;101469.09;2634638;36;20027;-74
2021/09/26 19:41:08;;;;;;;33.95;24.25;;;;;;;17.52;100.00;101472.47;2634996;36;20023;-76
2021/09/26 19:43:50;;;;;;;29.63;22.05;;;;;;;17.45;100.00;101474.16;2617400;36;20026;-75
2021/09/26 19:46:32;;;;;;;28.77;22.17;;;;;;;17.45;100.00;101470.59;2650994;36;20097;-75
2021/09/26 19:49:11;;;;;;;27.17;20.55;;;;;;;17.45;100.00;101473.31;2634175;36;20034;-75
2021/09/26 19:52:12;;;;;;;23.80;20.00;;;;;;;17.44;100.00;101472.44;2634541;36;20034;-75
2021/09/26 19:55:12;;;;;;;;;;;;;;;;;;;;;
2021/09/26 19:58:14;;;;;;;30.05;21.35;;;;;;;17.44;100.00;101474.31;2634952;36;20447;-77
2021/09/26 20:04:15;;;;;;;26.73;18.77;;;;;;;17.42;100.00;101476.38;2634784;36;20784;-74
2021/09/26 20:07:13;;;;;;;24.52;18.98;;;;;;;17.38;100.00;101473.13;2652724;36;20033;-75
2021/09/26 20:09:57;;;;;;;26.27;19.60;;;;;;;17.35;100.00;101484.34;2617023;36;20535;-74
2021/09/26 20:13:11;;;;;;;23.15;19.70;;;;;;;17.40;100.00;101484.72;2652229;36;20138;-76
2021/09/26 20:18:49;;;;;;;;;;;;;;;;;;;;;
2021/09/26 20:21:22;;;;;;;29.77;21.88;;;;;;;17.24;100.00;101485.50;2634571;36;20030;-75
2021/09/26 20:24:02;;;;;;;26.33;20.73;;;;;;;17.23;100.00;101482.94;2616438;36;20117;-74
2021/09/26 20:26:30;;;;;;;26.05;20.67;;;;;;;17.15;100.00;101484.63;2616237;36;20041;-75
2021/09/26 20:28:58;;;;;;;28.58;22.33;;;;;;;17.20;100.00;101486.84;2616483;36;20049;-75
2021/09/26 20:34:09;;;;;;;28.55;21.80;;;;;;;17.14;100.00;101485.63;2661985;36;20030;-76
2021/09/26 20:36:45;;;;;;;25.77;20.17;;;;;;;17.16;100.00;101483.59;2615987;36;20061;-76
2021/09/26 20:39:14;;;;;;;26.48;20.85;;;;;;;17.15;100.00;101487.34;2615592;36;20030;-75
2021/09/26 20:41:44;;;;;;;27.23;21.55;;;;;;;17.12;100.00;101482.22;2616248;36;20069;-74
2021/09/26 20:44:12;;;;;;;25.50;20.25;;;;;;;17.03;100.00;101482.34;2616736;36;20037;-75
2021/09/26 20:46:41;;;;;;;24.58;19.83;;;;;;;17.02;100.00;101480.63;2617039;36;20053;-74
2021/09/26 20:49:11;;;;;;;24.00;20.77;;;;;;;16.99;100.00;101476.41;2616748;36;20034;-74
2021/09/26 20:51:42;;;;;;;25.13;20.05;;;;;;;16.92;100.00;101472.63;2617135;36;20108;-74
2021/09/26 20:54:11;;;;;;;25.23;19.63;;;;;;;16.92;100.00;101472.63;2616787;36;20062;-75
2021/09/26 20:56:40;;;;;;;26.75;20.77;;;;;;;16.89;100.00;101475.69;2617598;36;20392;-76
2021/09/26 20:59:08;;;;;;;27.42;21.83;;;;;;;16.88;100.00;101473.97;2616270;36;20053;-74
2021/09/26 21:01:38;;;;;;;25.47;20.03;;;;;;;16.87;100.00;101469.50;2616448;36;20065;-75
2021/09/26 21:04:07;;;;;;;25.58;20.35;;;;;;;16.86;100.00;101465.06;2616396;36;20018;-74
2021/09/26 21:06:37;;;;;;;27.55;20.85;;;;;;;16.80;100.00;101472.03;2616505;36;20022;-75
2021/09/26 21:09:08;;;;;;;22.92;18.83;;;;;;;16.74;100.00;101470.81;2616704;36;20522;-75
2021/09/26 21:11:36;;;;;;;23.27;18.65;;;;;;;16.74;100.00;101468.09;2615773;36;20055;-75
2021/09/26 21:14:05;;;;;;;22.93;18.93;;;;;;;16.71;100.00;101472.97;2615266;36;20082;-75
2021/09/26 21:16:33;;;;;;;;;;;;;;;16.70;100.00;101469.41;2616060;36;20031;-75
2021/09/26 21:19:02;;;;;;;26.58;19.75;;;;;;;16.68;100.00;101465.16;2615641;36;19974;-74
2021/09/26 21:21:32;;;;;;;24.33;19.52;;;;;;;16.62;100.00;101463.94;2631143;36;20077;-75
2021/09/26 21:24:00;;;;;;;28.15;19.70;;;;;;;16.61;100.00;101465.81;2614707;36;20459;-76
2021/09/26 21:26:40;;;;;;;25.80;18.70;;;;;;;16.55;100.00;101468.28;2615461;36;20030;-77
2021/09/26 21:29:17;;;;;;;23.30;19.92;;;;;;;16.55;100.00;101468.28;2633145;36;20046;-74
2021/09/26 21:31:50;;;;;;;22.50;19.60;;;;;;;16.50;100.00;101471.50;2631001;36;20042;-73
2021/09/26 21:34:29;;;;;;;23.85;20.08;;;;;;;16.53;100.00;101464.91;2633303;36;20030;-75
2021/09/26 21:37:02;;;;;;;23.40;18.80;;;;;;;16.44;100.00;101462.16;2616166;36;20022;-75
2021/09/26 21:39:44;;;;;;;22.98;19.23;;;;;;;16.42;100.00;101461.44;2617022;36;21165;-74
2021/09/26 21:42:21;;;;;;;26.45;19.88;;;;;;;16.34;100.00;101455.97;2652157;36;20446;-74
2021/09/26 21:45:11;;;;;;;25.05;19.65;;;;;;;16.39;100.00;101450.06;2635213;36;20446;-77
2021/09/26 21:48:10;;;;;;;22.23;17.77;;;;;;;16.25;100.00;101452.34;2616073;36;20030;-76
2021/09/26 21:50:43;;;;;;;25.65;19.30;;;;;;;16.32;100.00;101449.81;2632874;36;20114;-75
2021/09/26 21:53:13;;;;;;;21.73;18.05;;;;;;;16.28;100.00;101448.44;2616574;36;20038;-75
2021/09/26 21:55:45;;;;;;;25.05;18.55;;;;;;;16.22;100.00;101458.06;2614644;36;20042;-77
2021/09/26 21:58:31;;;;;;;26.13;18.65;;;;;;;16.14;100.00;101449.03;2613762;36;20035;-75
2021/09/26 22:01:16;;;;;;;24.88;18.80;;;;;;;16.19;100.00;101452.09;2612706;36;20030;-75
2021/09/26 22:03:53;;;;;;;23.33;19.67;;;;;;;16.15;100.00;101448.88;2615438;36;20056;-75
2021/09/26 22:06:24;;;;;;;27.80;19.35;;;;;;;16.18;100.00;101451.28;2632129;36;20536;-77
2021/09/26 22:11:48;;;;;;;23.67;18.85;;;;;;;16.14;100.00;101449.03;2616456;36;20055;-74
2021/09/26 22:17:40;;;;;;;24.17;17.85;;;;;;;16.10;100.00;101446.59;2616372;36;20436;-75
2021/09/26 22:20:17;;;;;;;27.30;18.92;;;;;;;16.09;100.00;101446.75;2651560;36;20030;-75
2021/09/26 22:22:57;;;;;;;23.02;18.17;;;;;;;16.06;100.00;101450.66;2634586;36;20058;-76
2021/09/26 22:25:53;;;;;;;22.65;18.50;;;;;;;16.00;100.00;101458.56;2616821;36;20611;-76
2021/09/26 22:34:20;;;;;;;25.42;19.25;;;;;;;15.97;100.00;101457.03;2613484;54;20169;-77
2021/09/26 22:37:11;;;;;;;24.48;19.83;;;;;;;15.96;100.00;101446.31;2634886;36;20023;-76
2021/09/26 22:39:42;;;;;;;22.35;18.75;;;;;;;15.94;100.00;101451.91;2616061;36;20026;-76
2021/09/26 22:42:44;;;;;;;24.95;19.83;;;;;;;15.91;100.00;101446.78;2634656;36;20039;-76
2021/09/26 22:45:20;;;;;;;27.73;18.70;;;;;;;15.87;100.00;101443.56;2635176;36;20098;-76
2021/09/26 22:47:50;;;;;;;25.05;19.35;;;;;;;15.82;100.00;101450.47;2616387;36;20026;-75
2021/09/26 22:50:30;;;;;;;29.58;20.85;;;;;;;15.80;100.00;101452.47;2617322;36;20022;-75
2021/09/26 22:53:02;;;;;;;28.33;19.90;;;;;;;15.74;100.00;101449.34;2616255;36;20030;-75
2021/09/26 22:55:39;;;;;;;27.85;20.20;;;;;;;15.66;100.00;101448.41;2632337;31;20026;-75
2021/09/26 22:58:22;;;;;;;31.17;20.65;;;;;;;15.69;100.00;101448.09;2652481;36;20038;-77
2021/09/26 23:01:17;;;;;;;30.05;20.90;;;;;;;15.63;100.00;101454.16;2616039;36;20034;-76
2021/09/26 23:42:13;;;;;;;40.15;23.77;;;;;;;15.59;100.00;101442.75;2615744;36;20026;-75
